createdAt,value
2023-03-14T00:01:46.277Z,5.27
2023-03-14T00:04:48.463Z,3.23
2023-03-14T00:07:50.903Z,6.03
2023-03-14T00:10:52.909Z,3.67
2023-03-14T00:13:54.928Z,3.40
2023-03-14T00:16:56.913Z,5.33
2023-03-14T00:20:05.299Z,4.27
2023-03-14T00:23:07.252Z,4.03
2023-03-14T00:26:15.544Z,3.10
2023-03-14T00:29:17.523Z,4.10
2023-03-14T00:32:21.219Z,6.13
2023-03-14T00:35:23.585Z,3.67
2023-03-14T00:38:26.251Z,4.73
2023-03-14T00:41:28.301Z,5.53
2023-03-14T00:44:30.300Z,2.50
2023-03-14T00:47:32.852Z,3.77
2023-03-14T00:50:34.829Z,3.23
2023-03-14T00:53:38.675Z,4.03
2023-03-14T00:56:40.654Z,3.40
2023-03-14T00:59:42.699Z,4.40
2023-03-14T01:02:45.111Z,4.90
2023-03-14T01:05:47.158Z,3.30
2023-03-14T01:08:51.292Z,2.57
2023-03-14T01:11:53.553Z,4.03
2023-03-14T01:14:55.570Z,4.43
2023-03-14T01:17:57.564Z,4.03
2023-03-14T01:20:59.896Z,3.17
2023-03-14T01:24:04.646Z,3.70
2023-03-14T01:27:06.825Z,4.30
2023-03-14T01:30:10.768Z,2.57
2023-03-14T01:33:15.524Z,4.70
2023-03-14T01:36:19.831Z,4.20
2023-03-14T01:39:22.191Z,5.27
2023-03-14T01:42:24.327Z,3.53
2023-03-14T01:46:03.970Z,3.87
2023-03-14T01:49:16.070Z,4.00
2023-03-14T01:52:34.909Z,2.80
2023-03-14T01:55:37.749Z,3.33
2023-03-14T01:58:43.337Z,4.13
2023-03-14T02:01:48.489Z,2.67
2023-03-14T02:04:51.835Z,3.77
2023-03-14T02:07:59.908Z,3.77
2023-03-14T02:11:10.138Z,3.37
2023-03-14T02:14:40.222Z,5.27
2023-03-14T02:18:07.645Z,2.60
2023-03-14T02:21:45.141Z,2.77
2023-03-14T02:24:59.055Z,2.57
2023-03-14T02:28:02.580Z,2.33
2023-03-14T02:31:05.007Z,2.77
2023-03-14T02:34:09.683Z,3.87
2023-03-14T02:37:14.674Z,3.13
2023-03-14T02:40:17.492Z,4.60
2023-03-14T02:43:20.095Z,3.10
2023-03-14T02:46:28.650Z,4.27
2023-03-14T02:49:34.676Z,4.50
2023-03-14T02:52:36.788Z,2.97
2023-03-14T02:55:38.939Z,3.50
2023-03-14T02:58:46.769Z,3.30
2023-03-14T03:02:18.008Z,2.13
2023-03-14T03:05:20.062Z,3.07
2023-03-14T03:08:24.304Z,2.70
2023-03-14T03:11:26.354Z,9.77
2023-03-14T03:14:28.547Z,7.57
2023-03-14T03:17:34.439Z,7.33
2023-03-14T03:20:36.782Z,5.03
2023-03-14T03:23:38.831Z,3.20
2023-03-14T03:26:41.504Z,3.57
2023-03-14T03:29:45.766Z,2.77
2023-03-14T03:32:48.171Z,2.50
2023-03-14T03:35:52.005Z,4.00
2023-03-14T03:39:04.735Z,3.17
2023-03-14T03:42:06.898Z,2.63
2023-03-14T03:45:09.502Z,3.43
2023-03-14T03:48:17.355Z,2.87
2023-03-14T03:51:19.470Z,3.70
2023-03-14T03:54:21.805Z,2.47
2023-03-14T03:57:23.896Z,3.40
2023-03-14T04:00:26.132Z,4.00
2023-03-14T04:03:28.286Z,2.83
2023-03-14T04:06:32.114Z,3.93
2023-03-14T04:09:36.307Z,3.33
2023-03-14T04:12:54.561Z,4.43
2023-03-14T04:16:00.181Z,3.10
2023-03-14T04:19:04.346Z,3.30
2023-03-14T04:22:07.484Z,4.97
2023-03-14T04:25:18.589Z,4.23
2023-03-14T04:28:25.229Z,3.63
2023-03-14T04:31:27.309Z,3.77
2023-03-14T04:34:29.481Z,2.93
2023-03-14T04:37:33.034Z,3.90
2023-03-14T04:40:37.636Z,4.07
2023-03-14T04:43:41.420Z,4.53
2023-03-14T04:46:46.510Z,2.90
2023-03-14T04:49:49.216Z,3.73
2023-03-14T04:52:52.072Z,3.07
2023-03-14T04:55:56.724Z,5.13
2023-03-14T04:59:01.802Z,3.90
2023-03-14T05:02:05.004Z,4.17
2023-03-14T05:05:27.272Z,2.83
2023-03-14T05:08:44.176Z,3.03
2023-03-14T05:12:04.848Z,4.50
2023-03-14T05:15:27.322Z,3.17
2023-03-14T05:18:55.287Z,3.33
2023-03-14T05:22:06.463Z,5.13
2023-03-14T05:25:26.879Z,4.53
2023-03-14T05:28:43.835Z,2.40
2023-03-14T05:31:53.821Z,2.77
2023-03-14T05:35:05.187Z,2.90
2023-03-14T05:38:24.096Z,3.00
2023-03-14T05:41:37.900Z,3.03
2023-03-14T05:44:58.662Z,3.13
2023-03-14T05:48:26.638Z,2.80
2023-03-14T05:51:37.850Z,3.23
2023-03-14T05:55:09.348Z,2.83
2023-03-14T05:58:11.427Z,2.43
2023-03-14T06:01:45.569Z,3.10
2023-03-14T06:04:54.493Z,2.57
2023-03-14T06:07:56.598Z,3.87
2023-03-14T06:10:59.772Z,3.17
2023-03-14T06:14:05.982Z,3.30
2023-03-14T06:17:08.111Z,2.93
2023-03-14T06:20:17.768Z,4.37
2023-03-14T06:23:20.200Z,2.10
2023-03-14T06:26:24.486Z,3.20
2023-03-14T06:29:26.509Z,1.87
2023-03-14T06:32:28.751Z,2.93
2023-03-14T06:35:35.490Z,2.50
2023-03-14T06:38:37.660Z,2.10
2023-03-14T06:41:41.116Z,4.03
2023-03-14T06:44:44.928Z,7.20
2023-03-14T06:47:47.193Z,3.47
2023-03-14T06:50:50.356Z,3.67
2023-03-14T06:53:52.958Z,2.13
2023-03-14T06:56:58.224Z,3.10
2023-03-14T07:00:00.361Z,2.40
2023-03-14T07:03:02.717Z,1.67
2023-03-14T07:06:08.707Z,2.07
2023-03-14T07:09:11.629Z,3.63
2023-03-14T07:12:18.124Z,2.63
2023-03-14T07:15:20.640Z,1.37
2023-03-14T07:18:27.544Z,0.60
2023-03-14T07:21:33.014Z,0.60
2023-03-14T07:24:35.781Z,0.60
2023-03-14T07:27:37.976Z,0.40
2023-03-14T07:30:40.151Z,0.37
2023-03-14T07:33:49.811Z,0.33
2023-03-14T07:36:52.704Z,0.40
2023-03-14T07:39:54.903Z,0.30
2023-03-14T07:43:01.144Z,0.10
2023-03-14T07:46:13.360Z,0.37
2023-03-14T07:49:15.343Z,0.20
2023-03-14T07:52:17.386Z,0.30
2023-03-14T07:55:19.539Z,0.50
2023-03-14T07:58:25.407Z,0.23
2023-03-14T08:01:27.429Z,0.20
2023-03-14T08:04:30.055Z,0.30
2023-03-14T08:07:32.086Z,0.30
2023-03-14T08:10:35.069Z,0.40
2023-03-14T08:13:38.449Z,1.00
2023-03-14T08:16:40.483Z,0.20
2023-03-14T08:19:43.350Z,0.47
2023-03-14T08:22:45.656Z,0.20
2023-03-14T08:25:51.374Z,1.10
2023-03-14T08:28:53.426Z,0.30
2023-03-14T08:31:56.147Z,0.30
2023-03-14T08:34:58.245Z,0.30
2023-03-14T08:38:00.807Z,0.37
2023-03-14T08:41:03.757Z,1.23
2023-03-14T08:44:06.038Z,0.10
2023-03-14T08:47:08.163Z,0.27
2023-03-14T08:50:15.519Z,0.20
2023-03-14T08:53:19.357Z,0.67
2023-03-14T08:56:21.435Z,0.20
2023-03-14T08:59:23.799Z,0.47
2023-03-14T09:02:27.218Z,0.20
2023-03-14T09:05:29.240Z,0.13
2023-03-14T09:08:31.288Z,0.20
2023-03-14T09:11:33.946Z,0.20
2023-03-14T09:14:37.366Z,0.40
2023-03-14T09:17:39.499Z,0.37
2023-03-14T09:20:41.612Z,0.20
2023-03-14T09:23:45.734Z,0.20
2023-03-14T09:26:48.669Z,0.20
2023-03-14T09:29:50.693Z,0.30
2023-03-14T09:32:52.829Z,0.20
2023-03-14T09:35:54.887Z,1.50
2023-03-14T09:38:57.049Z,0.37
2023-03-14T09:42:04.583Z,0.10
2023-03-14T09:45:12.173Z,0.20
2023-03-14T09:48:21.250Z,0.10
2023-03-14T09:51:24.812Z,0.20
2023-03-14T09:54:42.198Z,0.80
2023-03-14T09:57:46.314Z,0.67
2023-03-14T10:00:48.702Z,0.30
2023-03-14T10:03:55.465Z,0.20
2023-03-14T10:06:57.524Z,0.27
2023-03-14T10:10:00.866Z,0.40
2023-03-14T10:13:25.451Z,0.20
2023-03-14T10:16:32.449Z,0.30
2023-03-14T10:19:36.806Z,0.20
2023-03-14T10:22:39.363Z,1.03
2023-03-14T10:25:44.207Z,0.20
2023-03-14T10:28:49.286Z,1.03
2023-03-14T10:35:08.930Z,0.50
2023-03-14T10:38:18.135Z,0.30
2023-03-14T10:41:28.683Z,0.33
2023-03-14T10:44:32.306Z,0.53
2023-03-14T10:47:34.861Z,0.50
2023-03-14T10:50:37.441Z,0.50
2023-03-14T10:53:49.301Z,0.50
2023-03-14T10:56:59.687Z,0.67
2023-03-14T11:00:03.523Z,0.23
2023-03-14T11:03:14.811Z,0.30
2023-03-14T11:06:29.884Z,0.57
2023-03-14T11:09:47.494Z,0.20
2023-03-14T11:13:13.522Z,0.40
2023-03-14T11:17:08.422Z,0.27
2023-03-14T11:20:34.054Z,0.23
2023-03-14T11:24:04.253Z,0.20
2023-03-14T11:27:19.859Z,0.40
2023-03-14T11:30:43.272Z,0.30
2023-03-14T11:34:03.270Z,0.30
2023-03-14T11:37:05.228Z,0.30
2023-03-14T11:40:20.886Z,0.63
2023-03-14T11:43:41.316Z,0.20
2023-03-14T11:46:52.125Z,0.53
2023-03-14T11:50:18.343Z,0.57
2023-03-14T11:54:05.104Z,0.30
2023-03-14T11:57:16.431Z,0.67
2023-03-14T12:00:20.433Z,0.40
2023-03-14T12:03:34.933Z,0.30
2023-03-14T12:06:49.543Z,0.43
2023-03-14T12:09:52.802Z,0.93
2023-03-14T12:12:54.947Z,0.83
2023-03-14T12:16:02.082Z,0.73
2023-03-14T12:19:26.479Z,0.77
2023-03-14T12:22:31.322Z,1.60
2023-03-14T12:25:35.056Z,0.20
2023-03-14T12:28:37.073Z,0.30
2023-03-14T12:32:02.277Z,0.47
2023-03-14T12:35:37.123Z,1.30
2023-03-14T12:39:00.844Z,0.53
2023-03-14T12:42:21.922Z,1.73
2023-03-14T12:45:28.871Z,1.03
2023-03-14T12:48:31.006Z,1.80
2023-03-14T12:51:38.053Z,0.57
2023-03-14T12:55:17.293Z,0.60
2023-03-14T12:58:32.008Z,0.33
2023-03-14T13:01:36.023Z,0.70
2023-03-14T13:05:03.532Z,0.20
2023-03-14T13:08:08.028Z,0.30
2023-03-14T13:11:30.376Z,0.30
2023-03-14T13:14:33.065Z,0.53
2023-03-14T13:17:37.186Z,0.30
2023-03-14T13:20:52.793Z,0.23
2023-03-14T13:24:00.562Z,0.40
2023-03-14T13:27:02.717Z,0.20
2023-03-14T13:30:17.247Z,0.63
2023-03-14T13:33:23.963Z,0.10
2023-03-14T13:36:27.679Z,0.10
2023-03-14T13:39:31.239Z,0.20
2023-03-14T13:42:33.507Z,0.17
2023-03-14T13:45:45.596Z,0.20
2023-03-14T13:49:19.020Z,0.17
2023-03-14T13:52:36.700Z,0.13
2023-03-14T13:55:39.546Z,0.10
2023-03-14T13:58:42.488Z,0.30
2023-03-14T14:01:44.932Z,0.17
2023-03-14T14:04:49.091Z,0.20
2023-03-14T14:07:53.383Z,0.10
2023-03-14T14:11:01.601Z,0.30
2023-03-14T14:14:05.211Z,0.20
2023-03-14T14:17:19.067Z,0.83
2023-03-14T14:20:36.033Z,0.77
2023-03-14T14:23:39.852Z,0.30
2023-03-14T14:26:59.902Z,0.30
2023-03-14T14:30:08.212Z,0.30
2023-03-14T14:33:28.627Z,0.20
2023-03-14T14:36:48.259Z,0.10
2023-03-14T14:39:53.273Z,0.20
2023-03-14T14:43:03.012Z,0.20
2023-03-14T14:46:09.551Z,0.20
2023-03-14T14:49:15.400Z,0.20
2023-03-14T14:52:19.910Z,0.20
2023-03-14T14:55:21.935Z,0.10
2023-03-14T14:58:36.156Z,0.40
2023-03-14T15:01:40.728Z,0.20
2023-03-14T15:04:42.849Z,0.33
2023-03-14T15:07:45.671Z,0.20
2023-03-14T15:10:47.811Z,0.10
2023-03-14T15:13:50.572Z,0.10
2023-03-14T15:16:52.642Z,0.27
2023-03-14T15:19:54.684Z,0.10
2023-03-14T15:22:56.693Z,0.10
2023-03-14T15:25:58.650Z,0.20
2023-03-14T15:29:00.718Z,0.13
2023-03-14T15:32:02.912Z,0.13
2023-03-14T15:35:05.411Z,0.27
2023-03-14T15:38:14.857Z,0.23
2023-03-14T15:41:17.376Z,0.63
2023-03-14T15:44:19.638Z,0.20
2023-03-14T15:47:21.718Z,0.20
2023-03-14T15:50:24.641Z,0.20
2023-03-14T15:53:26.665Z,1.33
2023-03-14T15:56:32.319Z,0.40
2023-03-14T15:59:34.987Z,0.30
2023-03-14T16:02:41.223Z,0.40
2023-03-14T16:05:43.583Z,0.23
2023-03-14T16:08:46.193Z,0.20
2023-03-14T16:11:48.226Z,0.33
2023-03-14T16:14:50.285Z,0.30
2023-03-14T16:17:56.125Z,0.20
2023-03-14T16:21:03.282Z,0.30
2023-03-14T16:24:07.225Z,0.97
2023-03-14T16:27:09.646Z,0.30
2023-03-14T16:30:16.710Z,0.13
2023-03-14T16:33:19.694Z,0.70
2023-03-14T16:36:22.113Z,0.30
2023-03-14T16:39:24.269Z,0.40
2023-03-14T16:42:26.871Z,0.20
2023-03-14T16:45:29.452Z,1.50
2023-03-14T16:48:31.812Z,0.83
2023-03-14T16:51:34.262Z,0.30
2023-03-14T16:54:36.281Z,0.20
2023-03-14T16:57:38.342Z,0.10
2023-03-14T17:00:40.722Z,0.20
2023-03-14T17:03:47.952Z,1.80
2023-03-14T17:06:50.257Z,0.23
2023-03-14T17:09:54.285Z,0.40
2023-03-14T17:12:56.816Z,0.30
2023-03-14T17:16:01.767Z,0.33
2023-03-14T17:19:04.454Z,0.60
2023-03-14T17:22:21.957Z,1.03
2023-03-14T17:25:25.724Z,0.40
2023-03-14T17:28:28.466Z,1.47
2023-03-14T17:31:32.597Z,0.40
2023-03-14T17:34:35.857Z,0.40
2023-03-14T17:37:38.578Z,0.30
2023-03-14T17:40:44.361Z,0.43
2023-03-14T17:43:47.436Z,0.20
2023-03-14T17:46:50.772Z,0.10
2023-03-14T17:49:53.580Z,0.10
2023-03-14T17:52:56.535Z,0.20
2023-03-14T17:55:59.257Z,0.23
2023-03-14T17:59:03.566Z,0.20
2023-03-14T18:02:07.298Z,0.63
2023-03-14T18:05:11.870Z,0.27
2023-03-14T18:08:15.861Z,0.70
2023-03-14T18:11:19.547Z,0.63
2023-03-14T18:14:23.503Z,0.20
2023-03-14T18:17:26.551Z,0.30
2023-03-14T18:20:31.928Z,0.20
2023-03-14T18:23:36.649Z,0.27
2023-03-14T18:26:40.053Z,0.20
2023-03-14T18:29:43.682Z,0.67
2023-03-14T18:32:46.771Z,0.20
2023-03-14T18:35:55.357Z,0.20
2023-03-14T18:38:59.462Z,1.43
2023-03-14T18:42:02.903Z,0.33
2023-03-14T18:45:13.514Z,0.27
2023-03-14T18:48:17.211Z,0.27
2023-03-14T18:51:21.425Z,0.20
2023-03-14T18:54:24.262Z,0.30
2023-03-14T18:57:28.110Z,0.10
2023-03-14T19:00:30.801Z,0.17
2023-03-14T19:03:35.737Z,0.53
2023-03-14T19:06:39.356Z,0.60
2023-03-14T19:09:43.101Z,0.10
2023-03-14T19:12:48.775Z,2.80
2023-03-14T19:15:53.962Z,0.10
2023-03-14T19:18:58.882Z,0.20
2023-03-14T19:22:01.702Z,0.20
2023-03-14T19:25:06.648Z,0.30
2023-03-14T19:28:11.162Z,0.20
2023-03-14T19:31:14.906Z,0.20
2023-03-14T19:34:18.766Z,0.20
2023-03-14T19:37:22.753Z,0.30
2023-03-14T19:40:25.450Z,0.40
2023-03-14T19:43:28.243Z,0.37
2023-03-14T19:46:33.856Z,0.90
2023-03-14T19:49:37.390Z,0.87
2023-03-14T19:52:50.110Z,0.20
2023-03-14T19:55:55.042Z,0.57
2023-03-14T19:59:00.671Z,0.47
2023-03-14T20:02:05.320Z,0.60
2023-03-14T20:05:09.166Z,0.70
2023-03-14T20:08:12.739Z,0.93
2023-03-14T20:11:16.306Z,0.40
2023-03-14T20:14:19.827Z,2.87
2023-03-14T20:17:23.164Z,1.23
2023-03-14T20:20:28.462Z,0.53
2023-03-14T20:23:35.026Z,1.50
2023-03-14T20:26:39.217Z,1.23
2023-03-14T20:29:42.260Z,0.60
2023-03-14T20:32:46.724Z,2.60
2023-03-14T20:36:00.768Z,0.30
2023-03-14T20:39:05.407Z,0.93
2023-03-14T20:42:08.877Z,2.60
2023-03-14T20:45:12.746Z,1.40
2023-03-14T20:48:16.198Z,1.30
2023-03-14T20:51:20.962Z,0.77
2023-03-14T20:54:24.254Z,0.90
2023-03-14T20:57:29.036Z,1.00
2023-03-14T21:00:32.832Z,1.10
2023-03-14T21:07:00.245Z,2.20
2023-03-14T21:10:04.563Z,0.70
2023-03-14T21:13:07.465Z,0.50
2023-03-14T21:16:10.384Z,1.60
2023-03-14T21:19:13.905Z,1.53
2023-03-14T21:22:18.876Z,2.17
2023-03-14T21:25:21.685Z,0.93
2023-03-14T21:28:24.742Z,3.17
2023-03-14T21:31:28.095Z,0.70
2023-03-14T21:34:30.898Z,1.93
2023-03-14T21:37:34.822Z,4.03
2023-03-14T21:40:38.083Z,6.00
2023-03-14T21:43:44.115Z,2.23
2023-03-14T21:46:46.538Z,0.90
2023-03-14T21:49:50.203Z,0.80
2023-03-14T21:52:57.031Z,2.67
2023-03-14T21:55:59.378Z,1.87
2023-03-14T21:59:01.523Z,0.63
2023-03-14T22:02:06.322Z,1.60
2023-03-14T22:05:13.556Z,0.60
2023-03-14T22:08:16.924Z,1.90
2023-03-14T22:11:18.836Z,2.47
2023-03-14T22:14:21.114Z,1.93
2023-03-14T22:17:23.075Z,4.40
2023-03-14T22:20:25.063Z,0.77
2023-03-14T22:23:27.211Z,0.83
2023-03-14T22:26:29.218Z,1.47
2023-03-14T22:29:31.372Z,1.37
2023-03-14T22:32:33.398Z,3.17
2023-03-14T22:35:35.551Z,2.27
2023-03-14T22:38:37.530Z,0.83
2023-03-14T22:41:39.538Z,1.53
2023-03-14T22:44:41.433Z,1.40
2023-03-14T22:47:43.372Z,1.30
2023-03-14T22:50:45.311Z,0.57
2023-03-14T22:53:49.345Z,3.07
2023-03-14T22:56:51.337Z,0.87
2023-03-14T22:59:53.533Z,1.10
2023-03-14T23:02:55.538Z,0.83
2023-03-14T23:05:57.655Z,1.13
2023-03-14T23:08:59.597Z,2.00
2023-03-14T23:12:02.055Z,1.57
2023-03-14T23:15:06.466Z,2.20
2023-03-14T23:18:09.440Z,1.90
2023-03-14T23:21:17.095Z,3.77
2023-03-14T23:24:19.174Z,2.53
2023-03-14T23:27:21.677Z,1.50
2023-03-14T23:30:23.746Z,1.00
2023-03-14T23:33:27.466Z,2.30
2023-03-14T23:36:30.112Z,1.27
2023-03-14T23:39:32.199Z,2.03
2023-03-14T23:42:35.563Z,2.30
2023-03-14T23:45:37.623Z,1.70
2023-03-14T23:48:39.978Z,1.10
2023-03-14T23:51:41.930Z,0.87
2023-03-14T23:54:43.876Z,3.40
2023-03-14T23:57:45.884Z,1.27
